This is the latest recevied weather packets stored in our database for station/object KD7AWQ. If no packets are shown the sender has not sent any weather packets the latest 10 day(s).
| Time | Temp. | Humidity | Pressure | Rain* | Wind** | Luminosity | Snow |
|---|---|---|---|---|---|---|---|
| 1777843505 | 25.56° C | 27% | 1183.1 hPa | 0 mm | - | 530 W/m² | - |
| 1777841986 | 25.56° C | 27% | 1183.8 hPa | 0 mm | - | 904 W/m² | - |
| 1777841077 | 24.44° C | 30% | 1184.1 hPa | 0 mm | - | 969 W/m² | - |
| 1777839261 | 23.33° C | 31% | 1184 hPa | 0 mm | - | 553 W/m² | - |
| 1777837442 | 22.78° C | 32% | 1184.6 hPa | 0 mm | - | 507 W/m² | - |
| 1777836225 | 22.78° C | 32% | 1185.2 hPa | 0 mm | - | 812 W/m² | - |
| 1777835922 | 22.78° C | 32% | 1184.8 hPa | 0 mm | - | 773 W/m² | - |
| 1777835619 | 22.22° C | 33% | 1185.2 hPa | 0 mm | - | 725 W/m² | - |
| 1777835013 | 22.22° C | 33% | 1185.5 hPa | 0 mm | - | 639 W/m² | - |
| 1777834710 | 22.22° C | 33% | 1185.6 hPa | 0 mm | - | 669 W/m² | - |
| 1777833190 | 21.67° C | 33% | 1186.2 hPa | 0 mm | - | 721 W/m² | - |
| 1777832887 | 22.22° C | 33% | 1186.2 hPa | 0 mm | - | 588 W/m² | - |
| 1777831676 | 21.67° C | 34% | 1186.1 hPa | 0 mm | - | 498 W/m² | - |
| 1777830769 | 21.67° C | 34% | 1186.5 hPa | 0 mm | - | 457 W/m² | - |
| 1777829256 | 21.11° C | 35% | 1186.7 hPa | 0 mm | - | 390 W/m² | - |
| 1777828953 | 21.11° C | 35% | 1186.6 hPa | 0 mm | - | 519 W/m² | - |
| 1777828043 | 21.11° C | 34% | 1187 hPa | 0 mm | - | 489 W/m² | - |
| 1777827740 | 21.11° C | 34% | 1186.7 hPa | 0 mm | - | 651 W/m² | - |
| 1777827134 | 20.56° C | 36% | 1186.4 hPa | 0 mm | - | 425 W/m² | - |
| 1777826224 | 21.11° C | 34% | 1186.9 hPa | 0 mm | - | 905 W/m² | - |
| 1777825922 | 21.11° C | 35% | 1186.7 hPa | 0 mm | - | 727 W/m² | - |
| 1777825618 | 20.56° C | 36% | 1187.2 hPa | 0 mm | - | 731 W/m² | - |
| 1777825317 | 20.56° C | 36% | 1187.1 hPa | 0 mm | - | 488 W/m² | - |
| 1777825013 | 20.56° C | 36% | 1187.4 hPa | 0 mm | - | 837 W/m² | - |
| 1777824709 | 20.56° C | 36% | 1187.3 hPa | 0 mm | - | 782 W/m² | - |
* Rain latest hour (hover to see other rain measurements)
** Current wind speed in m/s (hover to see current wind gust speed)